Time;durP1;ratioP1;P1;durP2;ratioP2;P2;SDS_P1;SDS_P2;PMS_P1;PMS_P2;Temp;Humidity;BMP_temperature;BMP_pressure;BME280_temperature;BME280_humidity;BME280_pressure;Samples;Min_cycle;Max_cycle;Signal;HPM_P1;HPM_P2
2022/01/02 00:00:09;;;;;;;5.50;2.87;;;14.60;99.90;;;;;;6314674;22;20162;-87
2022/01/02 00:02:36;;;;;;;8.43;2.40;;;14.60;99.90;;;;;;6314938;22;20197;-88
2022/01/02 00:05:08;;;;;;;7.40;2.50;;;14.50;99.90;;;;;;6314900;22;20225;-87
2022/01/02 00:07:45;;;;;;;9.47;2.70;;;14.50;99.90;;;;;;6314697;22;20146;-88
2022/01/02 00:10:12;;;;;;;7.40;3.03;;;14.60;99.90;;;;;;6315264;22;20176;-88
2022/01/02 00:12:49;;;;;;;5.30;2.30;;;14.70;99.90;;;;;;6315113;22;20154;-88
2022/01/02 00:15:17;;;;;;;8.07;2.50;;;14.80;99.90;;;;;;6314740;22;20186;-87
2022/01/02 00:17:43;;;;;;;8.73;2.53;;;14.90;99.90;;;;;;6314762;22;20165;-88
2022/01/02 00:20:12;;;;;;;7.37;2.87;;;14.90;99.90;;;;;;6314514;22;20185;-87
2022/01/02 00:22:41;;;;;;;8.73;2.63;;;14.90;99.90;;;;;;6314849;22;20191;-88
2022/01/02 00:25:14;;;;;;;9.10;2.80;;;14.90;99.90;;;;;;6314047;22;20150;-88
2022/01/02 00:27:41;;;;;;;7.50;2.57;;;14.80;99.90;;;;;;6314727;22;20147;-87
2022/01/02 00:30:07;;;;;;;9.00;2.50;;;14.80;99.90;;;;;;6314197;22;20206;-87
2022/01/02 00:32:35;;;;;;;9.20;2.37;;;14.70;99.90;;;;;;6314248;22;20151;-86
2022/01/02 00:35:01;;;;;;;8.30;2.63;;;14.70;99.90;;;;;;6314151;22;20174;-87
2022/01/02 00:37:27;;;;;;;9.07;2.70;;;14.70;99.90;;;;;;6314180;22;20148;-87
2022/01/02 00:39:53;;;;;;;6.47;2.50;;;14.80;99.90;;;;;;6313488;22;20637;-88
2022/01/02 00:42:35;;;;;;;9.60;2.93;;;14.70;99.90;;;;;;6313966;22;20195;-88
2022/01/02 00:45:07;;;;;;;6.93;2.40;;;14.70;99.90;;;;;;6314502;22;20151;-88
2022/01/02 00:47:43;;;;;;;7.73;2.97;;;14.60;99.90;;;;;;6314411;22;20154;-87
2022/01/02 00:50:15;;;;;;;8.73;3.27;;;14.20;99.90;;;;;;6314240;22;20586;-87
2022/01/02 00:52:44;;;;;;;6.60;2.33;;;14.00;99.90;;;;;;6314007;22;20151;-87
2022/01/02 00:55:18;;;;;;;12.57;3.37;;;13.90;99.90;;;;;;6313775;22;20186;-87
2022/01/02 00:57:55;;;;;;;12.33;4.00;;;13.90;99.90;;;;;;6314182;22;20149;-87
2022/01/02 01:00:22;;;;;;;9.57;3.60;;;13.90;99.90;;;;;;6314085;22;20152;-87
2022/01/02 01:02:50;;;;;;;8.50;3.20;;;13.80;99.90;;;;;;6313817;22;20154;-86
2022/01/02 01:05:22;;;;;;;10.20;3.40;;;13.70;99.90;;;;;;6313402;22;20153;-88
2022/01/02 01:07:52;;;;;;;9.23;3.20;;;13.70;99.90;;;;;;6313138;22;20577;-87
2022/01/02 01:10:20;;;;;;;9.47;3.03;;;13.70;99.90;;;;;;6313633;22;20182;-87
2022/01/02 01:12:50;;;;;;;9.27;3.20;;;13.70;99.90;;;;;;6314103;22;20154;-87
2022/01/02 01:15:16;;;;;;;9.03;3.03;;;13.70;99.90;;;;;;6314166;22;20207;-88
2022/01/02 01:17:42;;;;;;;10.23;3.33;;;13.60;99.90;;;;;;6313744;22;20201;-87
2022/01/02 01:20:13;;;;;;;11.47;3.50;;;13.60;99.90;;;;;;6313940;22;20165;-88
2022/01/02 01:22:39;;;;;;;9.60;3.50;;;13.60;99.90;;;;;;6313146;22;20200;-87
2022/01/02 01:25:07;;;;;;;11.67;3.57;;;13.50;99.90;;;;;;6313757;22;20167;-87
2022/01/02 01:27:33;;;;;;;7.93;4.07;;;13.50;99.90;;;;;;6313921;22;20238;-88
2022/01/02 01:29:59;;;;;;;10.03;3.57;;;13.40;99.90;;;;;;6313393;22;20145;-88
2022/01/02 01:32:25;;;;;;;8.50;3.87;;;13.40;99.90;;;;;;6313984;22;20594;-87
2022/01/02 01:34:50;;;;;;;14.00;3.87;;;13.40;99.90;;;;;;6313810;22;20173;-88
2022/01/02 01:37:16;;;;;;;11.50;4.00;;;13.50;99.90;;;;;;6313128;22;20533;-88
2022/01/02 01:39:41;;;;;;;10.03;4.00;;;13.50;99.90;;;;;;6313500;22;20152;-88
2022/01/02 01:42:10;;;;;;;9.27;3.53;;;13.50;99.90;;;;;;6313812;22;20160;-88
2022/01/02 01:47:14;;;;;;;10.03;3.67;;;13.50;99.90;;;;;;6344560;22;20789;-87
2022/01/02 01:49:40;;;;;;;5.30;3.00;;;13.50;99.90;;;;;;6314015;22;20154;-88
2022/01/02 01:52:06;;;;;;;10.20;3.10;;;13.50;99.90;;;;;;6317156;22;20204;-88
2022/01/02 01:54:31;;;;;;;9.73;3.47;;;13.50;99.90;;;;;;6324925;22;20196;-89
2022/01/02 01:56:57;;;;;;;11.37;3.33;;;13.50;99.90;;;;;;6325423;22;20242;-88
2022/01/02 01:59:23;;;;;;;6.90;3.07;;;13.50;99.90;;;;;;6313906;22;20153;-88
2022/01/02 02:01:50;;;;;;;6.83;3.27;;;13.60;99.90;;;;;;6312914;22;20176;-87
2022/01/02 02:04:16;;;;;;;8.37;2.80;;;13.60;99.90;;;;;;6313633;22;20154;-88
2022/01/02 02:06:42;;;;;;;12.47;3.20;;;13.70;99.90;;;;;;6313519;22;20235;-88
2022/01/02 02:09:09;;;;;;;11.27;3.17;;;13.70;99.90;;;;;;6313425;22;20145;-88
2022/01/02 02:11:39;;;;;;;8.87;3.10;;;13.70;99.90;;;;;;6314180;22;20200;-88
2022/01/02 02:14:07;;;;;;;8.43;2.90;;;13.70;99.90;;;;;;6313335;22;20151;-88
2022/01/02 02:16:34;;;;;;;9.87;3.03;;;13.70;99.90;;;;;;6312089;22;20184;-88
2022/01/02 02:19:00;;;;;;;6.93;2.93;;;13.80;99.90;;;;;;6313394;22;20145;-88
2022/01/02 02:21:28;;;;;;;9.90;3.57;;;13.60;99.90;;;;;;6312781;22;20160;-88
2022/01/02 02:23:54;;;;;;;8.83;3.20;;;13.50;99.90;;;;;;6313445;22;20170;-88
2022/01/02 02:26:20;;;;;;;7.37;3.10;;;13.50;99.90;;;;;;6313553;22;20146;-87
2022/01/02 02:28:45;;;;;;;7.90;3.03;;;13.60;99.90;;;;;;6312881;22;20156;-87
2022/01/02 02:31:11;;;;;;;7.07;2.80;;;13.60;99.90;;;;;;6313536;22;20172;-88
2022/01/02 02:33:37;;;;;;;5.97;3.07;;;13.50;99.90;;;;;;6313169;22;20156;-88
2022/01/02 02:36:02;;;;;;;5.47;2.70;;;13.50;99.90;;;;;;6312814;22;20198;-88
2022/01/02 02:38:28;;;;;;;8.20;3.00;;;13.40;99.90;;;;;;6313430;22;20153;-89
2022/01/02 02:40:54;;;;;;;6.37;2.63;;;13.50;99.90;;;;;;6313158;22;20183;-88
2022/01/02 02:43:34;;;;;;;7.20;2.93;;;13.50;99.90;;;;;;6313008;22;20206;-88
2022/01/02 02:49:05;;;;;;;4.63;2.37;;;13.60;99.90;;;;;;6341034;22;20218;-88
2022/01/02 02:51:44;;;;;;;5.67;2.53;;;13.60;99.90;;;;;;6312624;22;20145;-88
2022/01/02 02:54:15;;;;;;;5.80;2.27;;;13.60;99.90;;;;;;6312751;22;20239;-88
2022/01/02 02:56:54;;;;;;;5.93;2.50;;;13.70;99.90;;;;;;6312776;22;20154;-88
2022/01/02 02:59:21;;;;;;;8.53;2.60;;;13.70;99.90;;;;;;6313389;22;20145;-88
2022/01/02 03:01:46;;;;;;;7.10;2.40;;;13.70;99.90;;;;;;6314070;22;20152;-88
2022/01/02 03:04:12;;;;;;;6.63;3.00;;;13.80;99.90;;;;;;6314137;22;20149;-88
2022/01/02 03:06:37;;;;;;;4.70;2.67;;;13.80;99.90;;;;;;6315163;22;20186;-88
2022/01/02 03:09:10;;;;;;;7.67;2.77;;;13.80;99.90;;;;;;6315104;22;20236;-88
2022/01/02 03:11:39;;;;;;;8.30;2.37;;;13.70;99.90;;;;;;6315633;22;20154;-88
2022/01/02 03:14:06;;;;;;;5.50;2.60;;;13.70;99.90;;;;;;6315700;22;20154;-88
2022/01/02 03:16:31;;;;;;;7.30;2.73;;;13.70;99.90;;;;;;6314440;22;20197;-87
2022/01/02 03:18:58;;;;;;;5.70;2.50;;;13.70;99.90;;;;;;6315085;22;20177;-88
2022/01/02 03:21:24;;;;;;;8.57;2.67;;;13.60;99.90;;;;;;6314841;22;20233;-88
2022/01/02 03:23:50;;;;;;;6.70;2.70;;;13.60;99.90;;;;;;6315171;22;20172;-87
2022/01/02 03:26:16;;;;;;;5.80;2.40;;;13.50;99.90;;;;;;6315038;22;20143;-88
2022/01/02 03:28:42;;;;;;;8.73;2.60;;;13.50;99.90;;;;;;6314662;22;20157;-88
2022/01/02 03:31:07;;;;;;;6.40;2.40;;;13.60;99.90;;;;;;6315381;22;20158;-88
2022/01/02 03:33:34;;;;;;;6.47;2.47;;;13.70;99.90;;;;;;6315126;22;20621;-87
2022/01/02 03:35:59;;;;;;;6.50;2.70;;;13.60;99.90;;;;;;6314719;22;20185;-88
2022/01/02 03:38:26;;;;;;;7.37;2.60;;;13.60;99.90;;;;;;6314127;22;20149;-87
2022/01/02 03:40:51;;;;;;;6.27;2.13;;;13.70;99.90;;;;;;6314782;22;20206;-87
2022/01/02 03:43:17;;;;;;;6.27;2.40;;;13.70;99.90;;;;;;6314599;22;20154;-88
2022/01/02 03:45:43;;;;;;;8.60;2.63;;;13.60;99.90;;;;;;6314674;22;20154;-88
2022/01/02 03:48:08;;;;;;;7.60;2.67;;;13.50;99.90;;;;;;6314343;22;20157;-88
2022/01/02 03:50:34;;;;;;;7.20;2.30;;;13.50;99.90;;;;;;6314320;22;20156;-88
2022/01/02 03:53:00;;;;;;;10.80;2.53;;;13.60;99.90;;;;;;6314642;22;20578;-88
2022/01/02 03:55:26;;;;;;;7.37;2.30;;;13.60;99.90;;;;;;6314765;22;20181;-88
2022/01/02 03:57:52;;;;;;;4.40;2.27;;;13.70;99.90;;;;;;6314557;22;20147;-88
2022/01/02 04:00:21;;;;;;;5.47;2.30;;;13.70;99.90;;;;;;6314112;22;20176;-88
2022/01/02 04:02:47;;;;;;;9.40;2.20;;;13.70;99.90;;;;;;6314702;22;20147;-88
2022/01/02 04:05:15;;;;;;;5.77;1.83;;;13.80;99.90;;;;;;6314534;22;20152;-88
2022/01/02 04:07:41;;;;;;;4.20;1.90;;;13.70;99.90;;;;;;6314749;22;20159;-88
2022/01/02 04:10:18;;;;;;;8.60;2.87;;;13.80;99.90;;;;;;6314384;22;20203;-89
2022/01/02 04:12:43;;;;;;;11.87;2.63;;;13.80;99.90;;;;;;6315313;22;20142;-88
2022/01/02 04:15:12;;;;;;;7.17;2.17;;;13.80;99.90;;;;;;6314305;22;20193;-88
2022/01/02 04:17:38;;;;;;;9.23;2.60;;;13.90;99.90;;;;;;6313409;22;20166;-88
2022/01/02 04:20:06;;;;;;;5.13;2.10;;;13.90;99.90;;;;;;6314332;22;20240;-88
2022/01/02 04:22:32;;;;;;;6.17;2.10;;;13.90;99.90;;;;;;6314685;22;20150;-87
2022/01/02 04:24:58;;;;;;;4.30;2.10;;;14.00;99.90;;;;;;6314453;22;20151;-88
2022/01/02 04:27:24;;;;;;;5.27;2.10;;;13.90;99.90;;;;;;6314741;22;20257;-88
2022/01/02 04:29:50;;;;;;;4.90;2.07;;;14.00;99.90;;;;;;6313674;22;20154;-88
2022/01/02 04:32:16;;;;;;;4.77;2.27;;;14.00;99.90;;;;;;6313910;22;20150;-88
2022/01/02 04:34:42;;;;;;;7.10;2.40;;;14.00;99.90;;;;;;6313409;22;20271;-88
2022/01/02 04:37:10;;;;;;;4.60;1.90;;;14.00;99.90;;;;;;6311316;22;20187;-89
2022/01/02 04:39:35;;;;;;;5.90;2.30;;;14.00;99.90;;;;;;6311770;22;20570;-88
2022/01/02 04:42:01;;;;;;;5.17;2.07;;;14.00;99.90;;;;;;6311953;22;20157;-88
2022/01/02 04:44:27;;;;;;;5.30;2.27;;;13.80;99.90;;;;;;6312025;22;20582;-88
2022/01/02 04:46:53;;;;;;;9.20;2.60;;;13.90;99.90;;;;;;6311900;22;20157;-88
2022/01/02 04:49:18;;;;;;;7.40;2.03;;;14.00;99.90;;;;;;6312089;22;20153;-88
2022/01/02 04:51:44;;;;;;;5.40;2.30;;;14.00;99.90;;;;;;6312195;22;20148;-88
2022/01/02 04:54:10;;;;;;;4.47;1.90;;;13.90;99.90;;;;;;6311813;22;20180;-88
2022/01/02 04:56:36;;;;;;;4.83;2.33;;;14.00;99.90;;;;;;6311138;22;20492;-87
2022/01/02 04:59:02;;;;;;;8.07;2.40;;;14.00;99.90;;;;;;6312056;22;20141;-87
2022/01/02 05:01:28;;;;;;;5.97;2.70;;;14.10;99.90;;;;;;6311838;22;20157;-87
2022/01/02 05:03:53;;;;;;;7.37;2.27;;;14.00;99.90;;;;;;6312443;22;20469;-87
2022/01/02 05:06:20;;;;;;;7.97;2.20;;;14.00;99.90;;;;;;6311947;22;20201;-87
2022/01/02 05:08:46;;;;;;;4.90;2.37;;;14.00;99.90;;;;;;6312151;22;20142;-87
2022/01/02 05:11:16;;;;;;;5.97;2.00;;;14.00;99.90;;;;;;6311847;22;20210;-88
2022/01/02 05:13:43;;;;;;;6.10;2.50;;;14.00;99.90;;;;;;6312165;22;20203;-87
2022/01/02 05:16:08;;;;;;;4.80;2.07;;;13.90;99.90;;;;;;6311302;22;20193;-87
2022/01/02 05:18:34;;;;;;;3.77;2.20;;;13.90;99.90;;;;;;6312048;22;20169;-87
2022/01/02 05:21:00;;;;;;;3.60;2.30;;;13.80;99.90;;;;;;6312280;22;20149;-87
2022/01/02 05:23:26;;;;;;;4.47;2.40;;;13.70;99.90;;;;;;6311667;22;20166;-87
2022/01/02 05:25:51;;;;;;;4.83;1.97;;;13.70;99.90;;;;;;6311426;22;20620;-88
2022/01/02 05:28:17;;;;;;;5.13;2.30;;;13.60;99.90;;;;;;6311849;22;20538;-87
2022/01/02 05:30:43;;;;;;;5.20;1.97;;;13.60;99.90;;;;;;6311398;22;20384;-88
2022/01/02 05:33:10;;;;;;;4.37;2.03;;;13.60;99.90;;;;;;6311879;22;20563;-87
2022/01/02 05:35:36;;;;;;;7.13;2.20;;;13.60;99.90;;;;;;6311780;22;20181;-86
2022/01/02 05:38:02;;;;;;;7.67;2.20;;;13.70;99.90;;;;;;6311773;22;20541;-87
2022/01/02 05:40:32;;;;;;;5.80;2.20;;;13.80;99.90;;;;;;6312039;22;20150;-87
2022/01/02 05:42:59;;;;;;;8.90;2.50;;;13.80;99.90;;;;;;6311583;22;20142;-87
2022/01/02 05:45:25;;;;;;;8.87;2.40;;;13.70;99.90;;;;;;6311368;22;20168;-86
2022/01/02 05:47:50;;;;;;;7.80;2.67;;;13.80;99.90;;;;;;6311845;22;20157;-88
2022/01/02 05:50:16;;;;;;;5.77;2.10;;;13.70;99.90;;;;;;6311841;22;20150;-88
2022/01/02 05:52:42;;;;;;;3.10;1.60;;;13.60;99.90;;;;;;6311447;22;20266;-87
2022/01/02 05:55:07;;;;;;;6.07;2.60;;;13.60;99.90;;;;;;6311447;22;20638;-87
2022/01/02 05:57:33;;;;;;;2.63;1.70;;;13.60;99.90;;;;;;6311522;22;20158;-87
2022/01/02 05:59:59;;;;;;;8.33;1.90;;;13.70;99.90;;;;;;6311125;22;20149;-87
2022/01/02 06:02:24;;;;;;;4.93;2.27;;;13.70;99.90;;;;;;6311373;22;20202;-87
2022/01/02 06:04:50;;;;;;;3.17;1.70;;;13.80;99.90;;;;;;6311738;22;20141;-87
2022/01/02 06:07:16;;;;;;;5.13;1.67;;;13.90;99.90;;;;;;6311451;22;20219;-87
2022/01/02 06:09:42;;;;;;;6.90;1.90;;;13.90;99.90;;;;;;6311430;22;20229;-88
2022/01/02 06:12:08;;;;;;;4.60;2.10;;;13.80;99.90;;;;;;6311315;22;20145;-87
2022/01/02 06:14:34;;;;;;;3.07;1.40;;;13.70;99.90;;;;;;6311466;22;20545;-88
2022/01/02 06:16:59;;;;;;;2.63;1.50;;;13.70;99.90;;;;;;6311207;22;20169;-88
2022/01/02 06:19:25;;;;;;;5.40;2.27;;;13.70;99.90;;;;;;6311510;22;20164;-87
2022/01/02 06:21:51;;;;;;;4.97;1.73;;;13.70;99.90;;;;;;6311401;22;20180;-88
2022/01/02 06:24:17;;;;;;;3.93;2.37;;;13.80;99.90;;;;;;6311396;22;20162;-87
2022/01/02 06:26:42;;;;;;;6.23;1.80;;;13.80;99.90;;;;;;6311482;22;20202;-87
2022/01/02 06:29:08;;;;;;;3.63;1.80;;;13.90;99.90;;;;;;6311054;22;20218;-87
2022/01/02 06:31:33;;;;;;;6.27;2.20;;;13.90;99.90;;;;;;6312277;22;20177;-88
2022/01/02 06:33:59;;;;;;;3.27;1.73;;;14.00;99.90;;;;;;6311752;22;20149;-87
2022/01/02 06:36:25;;;;;;;3.13;1.43;;;14.00;99.90;;;;;;6311460;22;20184;-87
2022/01/02 06:38:50;;;;;;;4.03;1.97;;;14.10;99.90;;;;;;6311011;22;20477;-87
2022/01/02 06:41:17;;;;;;;5.17;1.90;;;14.10;99.90;;;;;;6310837;22;20169;-86
2022/01/02 06:43:43;;;;;;;4.17;1.67;;;14.10;99.90;;;;;;6311295;22;20146;-87
2022/01/02 06:46:09;;;;;;;2.70;1.53;;;14.10;99.90;;;;;;6311109;22;20165;-87
2022/01/02 06:48:36;;;;;;;3.23;1.87;;;14.10;99.90;;;;;;6311124;22;20157;-88
2022/01/02 06:51:02;;;;;;;3.53;1.47;;;14.20;99.90;;;;;;6311312;22;20592;-87
2022/01/02 06:53:27;;;;;;;3.13;1.50;;;14.00;99.90;;;;;;6311419;22;20206;-87
2022/01/02 06:55:53;;;;;;;4.67;1.43;;;14.10;99.90;;;;;;6311161;22;20196;-87
2022/01/02 06:58:19;;;;;;;3.67;1.67;;;14.10;99.90;;;;;;6311564;22;20152;-88
2022/01/02 07:00:44;;;;;;;2.37;1.43;;;14.10;99.90;;;;;;6311107;22;20149;-88
2022/01/02 07:03:11;;;;;;;5.00;1.67;;;14.20;99.90;;;;;;6311004;22;20223;-88
2022/01/02 07:05:36;;;;;;;3.30;1.47;;;14.10;99.90;;;;;;6311154;22;20145;-88
2022/01/02 07:08:02;;;;;;;2.60;1.53;;;14.10;99.90;;;;;;6311300;22;20150;-87
2022/01/02 07:10:28;;;;;;;5.43;1.87;;;14.10;99.90;;;;;;6311017;22;20159;-88
2022/01/02 07:12:54;;;;;;;3.67;1.50;;;14.20;99.90;;;;;;6311284;22;20586;-87
2022/01/02 07:15:20;;;;;;;4.27;1.70;;;14.20;99.90;;;;;;6311153;22;20187;-88
2022/01/02 07:17:46;;;;;;;3.57;1.53;;;14.20;99.90;;;;;;6311006;22;20649;-88
2022/01/02 07:20:12;;;;;;;2.47;1.27;;;14.20;99.90;;;;;;6310870;22;20589;-88
2022/01/02 07:22:40;;;;;;;2.20;1.07;;;14.10;99.90;;;;;;6311128;22;20170;-88
2022/01/02 07:25:08;;;;;;;3.20;1.60;;;14.10;99.90;;;;;;6310580;22;20584;-86
2022/01/02 07:27:34;;;;;;;3.37;1.67;;;14.10;99.90;;;;;;6310997;22;20212;-88
2022/01/02 07:30:00;;;;;;;4.07;1.70;;;14.10;99.90;;;;;;6311049;22;20150;-88
2022/01/02 07:32:26;;;;;;;4.47;1.83;;;14.10;99.90;;;;;;6311260;22;20176;-88
2022/01/02 07:34:52;;;;;;;3.37;1.73;;;14.10;99.90;;;;;;6311232;22;20193;-88
2022/01/02 07:37:17;;;;;;;5.17;1.73;;;14.10;99.90;;;;;;6310990;22;20203;-88
2022/01/02 07:39:44;;;;;;;4.83;1.80;;;14.10;99.90;;;;;;6310801;22;20216;-88
2022/01/02 07:42:09;;;;;;;4.50;1.90;;;14.10;99.90;;;;;;6311031;22;20146;-88
2022/01/02 07:44:37;;;;;;;2.90;1.40;;;14.10;99.90;;;;;;6310816;22;20150;-88
2022/01/02 07:47:04;;;;;;;4.00;1.87;;;14.10;99.90;;;;;;6310970;22;20146;-88
2022/01/02 07:49:29;;;;;;;5.60;2.27;;;14.10;99.90;;;;;;6311763;22;20515;-88
2022/01/02 07:51:55;;;;;;;4.50;2.13;;;14.00;99.90;;;;;;6313006;22;20228;-88
2022/01/02 07:54:20;;;;;;;3.20;2.00;;;14.00;99.90;;;;;;6312412;22;20154;-87
2022/01/02 07:56:47;;;;;;;3.07;2.03;;;14.00;99.90;;;;;;6312979;22;20464;-88
2022/01/02 07:59:13;;;;;;;5.53;2.33;;;14.00;99.90;;;;;;6312707;22;20153;-87
2022/01/02 08:01:38;;;;;;;5.47;2.30;;;13.90;99.90;;;;;;6313099;22;20155;-87
2022/01/02 08:04:04;;;;;;;4.97;1.90;;;13.90;99.90;;;;;;6312500;22;20153;-88
2022/01/02 08:06:30;;;;;;;4.80;2.03;;;13.90;99.90;;;;;;6312831;22;20157;-88
2022/01/02 08:08:56;;;;;;;5.10;2.37;;;13.90;99.90;;;;;;6312722;22;20494;-87
2022/01/02 08:11:22;;;;;;;4.93;2.40;;;13.80;99.90;;;;;;6312488;22;20156;-88
2022/01/02 08:13:47;;;;;;;4.90;2.03;;;13.70;99.90;;;;;;6312785;22;20680;-88
2022/01/02 08:16:13;;;;;;;4.37;2.37;;;13.80;99.90;;;;;;6312203;22;20193;-88
2022/01/02 08:18:40;;;;;;;6.30;2.57;;;13.70;99.90;;;;;;6312774;22;20203;-88
2022/01/02 08:21:06;;;;;;;6.00;2.80;;;13.80;99.90;;;;;;6312175;22;20153;-88
2022/01/02 08:23:32;;;;;;;8.57;2.70;;;13.70;99.90;;;;;;6312200;22;20268;-87
2022/01/02 08:25:58;;;;;;;2.93;2.20;;;13.60;99.90;;;;;;6312651;22;20185;-88
2022/01/02 08:28:23;;;;;;;3.27;2.70;;;13.70;99.90;;;;;;6312650;22;20153;-87
2022/01/02 08:30:49;;;;;;;5.30;2.47;;;13.60;99.90;;;;;;6312494;22;20168;-88
2022/01/02 08:33:15;;;;;;;6.03;2.73;;;13.60;99.90;;;;;;6312347;22;20180;-88
2022/01/02 08:35:45;;;;;;;5.07;2.63;;;13.70;99.90;;;;;;6312046;22;20216;-88
2022/01/02 08:38:12;;;;;;;7.37;3.47;;;13.70;99.90;;;;;;6312254;22;20564;-88
2022/01/02 08:40:38;;;;;;;5.70;2.97;;;13.70;99.90;;;;;;6312068;22;20154;-89
2022/01/02 08:43:05;;;;;;;7.87;3.43;;;13.60;99.90;;;;;;6312729;22;20165;-88
2022/01/02 08:45:31;;;;;;;6.27;3.43;;;13.50;99.90;;;;;;6312805;22;20176;-88
2022/01/02 08:47:58;;;;;;;7.00;3.17;;;13.50;99.90;;;;;;6312269;22;20587;-88
2022/01/02 08:50:24;;;;;;;5.40;2.97;;;13.50;99.90;;;;;;6312037;22;20162;-88
2022/01/02 08:52:49;;;;;;;4.33;3.13;;;13.50;99.90;;;;;;6312026;22;20469;-88
2022/01/02 08:55:15;;;;;;;6.77;3.40;;;13.60;99.90;;;;;;6312434;22;20279;-88
2022/01/02 08:57:41;;;;;;;5.13;2.93;;;13.50;99.90;;;;;;6312234;22;20145;-88
2022/01/02 09:00:08;;;;;;;9.20;4.03;;;13.50;99.90;;;;;;6311735;22;20146;-89
2022/01/02 09:02:34;;;;;;;8.33;3.27;;;13.50;99.90;;;;;;6311742;22;20151;-88
2022/01/02 09:04:59;;;;;;;7.53;3.40;;;13.50;99.90;;;;;;6312278;22;20232;-88
2022/01/02 09:07:25;;;;;;;6.90;3.70;;;13.50;99.90;;;;;;6311825;22;20145;-88
2022/01/02 09:09:51;;;;;;;8.03;3.30;;;13.40;99.90;;;;;;6312168;22;20194;-88
2022/01/02 09:12:16;;;;;;;6.93;3.40;;;13.40;99.90;;;;;;6311748;22;20154;-87
2022/01/02 09:14:42;;;;;;;9.50;3.63;;;13.40;99.90;;;;;;6312089;22;20680;-87
2022/01/02 09:17:08;;;;;;;6.50;3.83;;;13.40;99.90;;;;;;6311604;22;20173;-88
2022/01/02 09:19:34;;;;;;;6.30;3.67;;;13.50;99.90;;;;;;6311779;22;20487;-87
2022/01/02 09:21:59;;;;;;;6.43;3.80;;;13.60;99.90;;;;;;6312122;22;20566;-88
2022/01/02 09:24:25;;;;;;;8.13;3.50;;;13.60;99.90;;;;;;6312057;22;20170;-87
2022/01/02 09:26:51;;;;;;;7.53;3.50;;;13.60;99.90;;;;;;6311588;22;20149;-88
2022/01/02 09:29:16;;;;;;;11.87;4.17;;;13.60;99.90;;;;;;6311919;22;20154;-88
2022/01/02 09:31:42;;;;;;;5.90;3.53;;;13.60;99.90;;;;;;6311718;22;20146;-88
2022/01/02 09:34:08;;;;;;;7.73;3.77;;;13.70;99.90;;;;;;6311910;22;20640;-87
2022/01/02 09:36:34;;;;;;;6.40;2.90;;;13.70;99.90;;;;;;6311128;22;20185;-87
2022/01/02 09:39:00;;;;;;;6.43;3.63;;;13.80;99.90;;;;;;6311675;22;20141;-87
2022/01/02 09:41:26;;;;;;;8.70;3.77;;;13.80;99.90;;;;;;6311574;22;20218;-88
2022/01/02 09:43:52;;;;;;;6.53;3.23;;;13.80;99.90;;;;;;6311956;22;20227;-87
2022/01/02 09:46:26;;;;;;;6.97;3.67;;;13.80;99.90;;;;;;6311246;22;20154;-88
2022/01/02 09:48:53;;;;;;;7.23;3.57;;;13.80;99.90;;;;;;6311580;22;20150;-87
2022/01/02 09:51:24;;;;;;;6.13;3.23;;;13.80;99.90;;;;;;6311216;22;20147;-88
2022/01/02 09:53:51;;;;;;;7.43;3.93;;;13.80;99.90;;;;;;6311680;22;20574;-88
2022/01/02 09:56:17;;;;;;;7.67;3.63;;;13.80;99.90;;;;;;6311330;22;20216;-89
2022/01/02 09:58:44;;;;;;;7.27;2.93;;;13.80;99.90;;;;;;6311562;22;20234;-88
2022/01/02 10:01:32;;;;;;;4.87;2.87;;;13.80;99.90;;;;;;6311811;22;20183;-88
2022/01/02 10:03:58;;;;;;;8.70;3.30;;;13.90;99.90;;;;;;6311633;22;20147;-88
2022/01/02 10:06:39;;;;;;;9.03;3.27;;;13.90;99.90;;;;;;6311348;22;20151;-88
2022/01/02 10:09:08;;;;;;;7.40;3.83;;;14.00;99.90;;;;;;6311597;22;20263;-88
2022/01/02 10:11:35;;;;;;;6.67;3.40;;;14.00;99.90;;;;;;6311122;22;20153;-88
2022/01/02 10:14:01;;;;;;;6.70;3.70;;;13.90;99.90;;;;;;6310746;22;20235;-87
2022/01/02 10:16:38;;;;;;;8.17;3.13;;;13.80;99.90;;;;;;6311287;22;20184;-87
2022/01/02 10:19:21;;;;;;;6.50;3.63;;;13.90;99.90;;;;;;6311013;22;20149;-87
2022/01/02 10:22:07;;;;;;;7.50;3.67;;;13.90;99.90;;;;;;6311475;22;20528;-88
2022/01/02 10:24:36;;;;;;;9.90;3.50;;;13.80;99.90;;;;;;6310594;22;20157;-88
2022/01/02 10:27:12;;;;;;;7.73;3.73;;;13.70;99.90;;;;;;6311167;22;20157;-87
2022/01/02 10:29:42;;;;;;;7.73;3.27;;;13.80;99.90;;;;;;6311614;22;20157;-88
2022/01/02 10:32:26;;;;;;;8.57;3.50;;;13.70;99.90;;;;;;6310971;22;20155;-87
2022/01/02 10:34:53;;;;;;;9.67;3.20;;;13.70;99.90;;;;;;6311104;22;20185;-87
2022/01/02 10:37:23;;;;;;;8.97;3.17;;;13.70;99.90;;;;;;6311166;22;20149;-88
2022/01/02 10:39:49;;;;;;;6.03;3.00;;;13.80;99.90;;;;;;6311842;22;20631;-88
2022/01/02 10:42:19;;;;;;;7.03;3.63;;;13.80;99.90;;;;;;6311247;22;20148;-88
2022/01/02 10:44:46;;;;;;;7.97;3.30;;;13.80;99.90;;;;;;6311433;22;20156;-88
2022/01/02 10:47:16;;;;;;;9.93;3.43;;;13.80;99.90;;;;;;6311174;22;20150;-87
2022/01/02 10:50:02;;;;;;;7.67;3.43;;;13.60;99.90;;;;;;6310761;22;20250;-88
2022/01/02 10:52:29;;;;;;;7.23;3.47;;;14.30;99.90;;;;;;6311045;22;20159;-88
2022/01/02 10:54:57;;;;;;;8.53;3.33;;;15.30;99.90;;;;;;6311107;22;20195;-88
2022/01/02 10:57:23;;;;;;;8.07;2.93;;;15.90;99.90;;;;;;6311218;22;20160;-88
2022/01/02 10:59:49;;;;;;;6.77;2.93;;;16.10;99.90;;;;;;6311138;22;20152;-87
2022/01/02 11:02:16;;;;;;;7.00;3.80;;;15.30;99.90;;;;;;6310808;22;20600;-87
2022/01/02 11:04:51;;;;;;;8.20;3.10;;;15.20;99.90;;;;;;6310853;22;20149;-89
2022/01/02 11:07:23;;;;;;;6.30;3.10;;;15.40;99.90;;;;;;6311328;22;20148;-88
2022/01/02 11:09:51;;;;;;;6.97;3.20;;;14.90;99.90;;;;;;6307056;22;20149;-87
2022/01/02 11:12:17;;;;;;;5.63;2.90;;;15.60;99.90;;;;;;6309453;22;20152;-87
2022/01/02 11:14:43;;;;;;;8.37;3.40;;;16.70;99.90;;;;;;6310142;22;20234;-88
2022/01/02 11:17:09;;;;;;;9.20;3.03;;;17.40;99.90;;;;;;6310435;22;20169;-88
2022/01/02 11:19:34;;;;;;;9.33;4.43;;;18.00;99.90;;;;;;6310809;22;20155;-88
2022/01/02 11:22:03;;;;;;;4.30;2.73;;;18.40;99.90;;;;;;6310844;22;20184;-86
2022/01/02 11:24:38;;;;;;;7.27;3.13;;;17.90;99.90;;;;;;6310496;22;20155;-87
2022/01/02 11:27:27;;;;;;;7.13;3.00;;;17.10;99.90;;;;;;6312682;22;20521;-87
2022/01/02 11:29:53;;;;;;;8.37;3.50;;;17.00;99.90;;;;;;6312427;22;20148;-87
2022/01/02 11:32:26;;;;;;;7.93;3.03;;;17.20;99.90;;;;;;6312422;22;20163;-87
2022/01/02 11:34:53;;;;;;;8.17;3.30;;;17.50;99.90;;;;;;6312476;22;20187;-87
2022/01/02 11:37:26;;;;;;;6.33;3.10;;;16.90;99.90;;;;;;6312870;22;20159;-87
2022/01/02 11:39:56;;;;;;;8.53;2.90;;;16.10;99.90;;;;;;6312261;22;20152;-87
2022/01/02 11:42:38;;;;;;;6.90;3.17;;;15.60;99.90;;;;;;6312157;22;20604;-86
2022/01/02 11:45:24;;;;;;;8.03;3.40;;;15.40;99.90;;;;;;6312171;22;20160;-87
2022/01/02 11:47:49;;;;;;;8.00;3.70;;;15.70;99.90;;;;;;6290513;22;20163;-87
2022/01/02 11:50:30;;;;;;;7.70;3.97;;;15.40;99.90;;;;;;6312185;22;20156;-86
2022/01/02 11:53:16;;;;;;;5.57;2.90;;;15.30;99.90;;;;;;6312450;22;20163;-87
2022/01/02 11:55:44;;;;;;;8.27;3.27;;;15.20;99.90;;;;;;6312551;22;20191;-87
2022/01/02 11:58:10;;;;;;;12.53;3.70;;;15.20;99.90;;;;;;6312961;22;20151;-87
2022/01/02 12:00:46;;;;;;;6.20;3.30;;;15.60;99.90;;;;;;6312189;22;20150;-87
2022/01/02 12:03:40;;;;;;;8.10;3.37;;;16.40;99.90;;;;;;6312694;22;20156;-87
2022/01/02 12:06:20;;;;;;;11.50;3.40;;;17.10;99.90;;;;;;6312580;22;20527;-87
2022/01/02 12:08:46;;;;;;;6.37;3.20;;;17.80;99.90;;;;;;6312792;22;20159;-87
2022/01/02 12:11:30;;;;;;;10.30;3.30;;;18.00;99.90;;;;;;6312638;22;20151;-87
2022/01/02 12:14:08;;;;;;;6.43;3.13;;;17.20;99.90;;;;;;6312775;22;20584;-87
2022/01/02 12:16:38;;;;;;;8.73;3.43;;;17.80;99.90;;;;;;6311764;22;20228;-87
2022/01/02 12:19:04;;;;;;;9.37;3.37;;;18.00;99.90;;;;;;6312851;22;20162;-87
2022/01/02 12:21:32;;;;;;;7.67;2.70;;;17.50;99.90;;;;;;6312147;22;20153;-87
2022/01/02 12:23:59;;;;;;;10.73;3.13;;;17.90;99.90;;;;;;6312558;22;20191;-87
2022/01/02 12:26:32;;;;;;;8.13;3.03;;;17.80;99.90;;;;;;6311918;22;20163;-87
2022/01/02 12:29:04;;;;;;;10.73;3.30;;;17.20;99.90;;;;;;6312577;22;20153;-87
2022/01/02 12:31:44;;;;;;;5.60;2.97;;;16.50;99.90;;;;;;6311930;22;20151;-86
2022/01/02 12:34:12;;;;;;;7.20;2.73;;;16.10;99.90;;;;;;6305867;22;20153;-87
2022/01/02 12:36:43;;;;;;;10.30;3.13;;;15.90;99.90;;;;;;6309854;22;20271;-86
2022/01/02 12:39:23;;;;;;;5.97;2.43;;;15.80;99.90;;;;;;6310418;22;20241;-86
2022/01/02 12:41:50;;;;;;;9.70;2.93;;;15.60;99.90;;;;;;6311690;22;20226;-86
2022/01/02 12:44:28;;;;;;;9.97;3.03;;;15.50;99.90;;;;;;6311148;22;20454;-87
2022/01/02 12:46:59;;;;;;;9.33;3.10;;;15.40;99.90;;;;;;6311818;22;20183;-87
2022/01/02 12:49:33;;;;;;;7.13;2.60;;;15.30;99.90;;;;;;6311739;22;20148;-87
2022/01/02 12:52:02;;;;;;;8.43;3.00;;;15.30;99.90;;;;;;6311654;22;20159;-87
2022/01/02 12:54:33;;;;;;;7.67;2.90;;;15.50;99.90;;;;;;6311921;22;20150;-87